sensor_id;sensor_type;location;lat;lon;timestamp;temperature;humidity
75838;SHT30;64480;52.040;113.502;2023-08-30T00:02:28;18.15;60.86
75838;SHT30;64480;52.040;113.502;2023-08-30T00:05:33;18.66;58.82
75838;SHT30;64480;52.040;113.502;2023-08-30T00:08:38;18.86;58.90
75838;SHT30;64480;52.040;113.502;2023-08-30T00:11:43;19.52;56.60
75838;SHT30;64480;52.040;113.502;2023-08-30T00:14:47;20.17;54.91
75838;SHT30;64480;52.040;113.502;2023-08-30T00:17:51;20.94;53.07
75838;SHT30;64480;52.040;113.502;2023-08-30T00:20:57;21.69;50.58
75838;SHT30;64480;52.040;113.502;2023-08-30T00:24:01;22.43;49.22
75838;SHT30;64480;52.040;113.502;2023-08-30T00:27:04;23.14;47.50
75838;SHT30;64480;52.040;113.502;2023-08-30T00:30:11;23.37;46.19
75838;SHT30;64480;52.040;113.502;2023-08-30T00:33:17;23.24;46.81
75838;SHT30;64480;52.040;113.502;2023-08-30T00:36:21;23.23;46.66
75838;SHT30;64480;52.040;113.502;2023-08-30T00:39:24;22.79;47.45
75838;SHT30;64480;52.040;113.502;2023-08-30T00:42:28;22.72;47.85
75838;SHT30;64480;52.040;113.502;2023-08-30T00:45:39;22.37;48.82
75838;SHT30;64480;52.040;113.502;2023-08-30T00:48:48;23.10;47.68
75838;SHT30;64480;52.040;113.502;2023-08-30T00:51:55;23.38;46.65
75838;SHT30;64480;52.040;113.502;2023-08-30T00:55:01;23.88;45.86
75838;SHT30;64480;52.040;113.502;2023-08-30T00:58:07;23.31;46.83
75838;SHT30;64480;52.040;113.502;2023-08-30T01:01:16;22.72;48.20
75838;SHT30;64480;52.040;113.502;2023-08-30T01:04:24;22.25;49.69
75838;SHT30;64480;52.040;113.502;2023-08-30T01:07:34;21.90;50.57
75838;SHT30;64480;52.040;113.502;2023-08-30T01:10:51;21.90;50.79
75838;SHT30;64480;52.040;113.502;2023-08-30T01:14:04;21.15;52.36
75838;SHT30;64480;52.040;113.502;2023-08-30T01:17:11;20.16;55.47
75838;SHT30;64480;52.040;113.502;2023-08-30T01:20:20;19.35;57.96
75838;SHT30;64480;52.040;113.502;2023-08-30T01:23:56;18.79;60.42
75838;SHT30;64480;52.040;113.502;2023-08-30T01:27:11;18.82;60.67
75838;SHT30;64480;52.040;113.502;2023-08-30T01:30:19;18.48;61.36
75838;SHT30;64480;52.040;113.502;2023-08-30T01:33:25;18.39;62.12
75838;SHT30;64480;52.040;113.502;2023-08-30T01:36:31;18.60;62.00
75838;SHT30;64480;52.040;113.502;2023-08-30T01:39:40;18.90;61.61
75838;SHT30;64480;52.040;113.502;2023-08-30T01:42:44;19.06;60.86
75838;SHT30;64480;52.040;113.502;2023-08-30T01:45:49;18.79;61.57
75838;SHT30;64480;52.040;113.502;2023-08-30T01:48:53;19.01;61.27
75838;SHT30;64480;52.040;113.502;2023-08-30T01:52:12;19.10;61.19
75838;SHT30;64480;52.040;113.502;2023-08-30T01:55:20;19.01;61.36
75838;SHT30;64480;52.040;113.502;2023-08-30T01:58:25;19.24;60.89
75838;SHT30;64480;52.040;113.502;2023-08-30T02:01:31;19.41;60.76
75838;SHT30;64480;52.040;113.502;2023-08-30T02:04:36;19.45;60.21
75838;SHT30;64480;52.040;113.502;2023-08-30T02:07:58;19.61;60.11
75838;SHT30;64480;52.040;113.502;2023-08-30T02:11:14;19.66;60.07
75838;SHT30;64480;52.040;113.502;2023-08-30T02:14:24;19.84;60.14
75838;SHT30;64480;52.040;113.502;2023-08-30T02:17:32;19.67;60.27
75838;SHT30;64480;52.040;113.502;2023-08-30T02:20:39;19.77;59.98
75838;SHT30;64480;52.040;113.502;2023-08-30T02:23:57;19.91;59.55
75838;SHT30;64480;52.040;113.502;2023-08-30T02:27:05;20.04;58.88
75838;SHT30;64480;52.040;113.502;2023-08-30T02:30:09;20.21;58.36
75838;SHT30;64480;52.040;113.502;2023-08-30T02:33:13;20.34;58.38
75838;SHT30;64480;52.040;113.502;2023-08-30T02:36:22;20.48;58.25
75838;SHT30;64480;52.040;113.502;2023-08-30T02:39:27;20.63;57.56
75838;SHT30;64480;52.040;113.502;2023-08-30T02:42:30;20.82;56.25
75838;SHT30;64480;52.040;113.502;2023-08-30T02:45:36;20.69;55.53
75838;SHT30;64480;52.040;113.502;2023-08-30T02:48:39;20.72;55.18
75838;SHT30;64480;52.040;113.502;2023-08-30T02:51:43;20.59;55.19
75838;SHT30;64480;52.040;113.502;2023-08-30T02:54:47;20.63;55.37
75838;SHT30;64480;52.040;113.502;2023-08-30T02:58:01;20.76;54.47
75838;SHT30;64480;52.040;113.502;2023-08-30T03:01:05;20.82;54.98
75838;SHT30;64480;52.040;113.502;2023-08-30T03:04:10;20.83;54.28
75838;SHT30;64480;52.040;113.502;2023-08-30T03:07:21;20.96;53.25
75838;SHT30;64480;52.040;113.502;2023-08-30T03:10:37;20.93;53.38
75838;SHT30;64480;52.040;113.502;2023-08-30T03:13:42;20.97;53.34
75838;SHT30;64480;52.040;113.502;2023-08-30T03:16:45;21.03;53.52
75838;SHT30;64480;52.040;113.502;2023-08-30T03:19:53;21.14;53.01
75838;SHT30;64480;52.040;113.502;2023-08-30T03:22:58;21.14;52.58
75838;SHT30;64480;52.040;113.502;2023-08-30T03:26:09;21.15;53.00
75838;SHT30;64480;52.040;113.502;2023-08-30T03:29:13;21.17;53.03
75838;SHT30;64480;52.040;113.502;2023-08-30T03:32:18;21.28;52.33
75838;SHT30;64480;52.040;113.502;2023-08-30T03:35:23;21.34;51.89
75838;SHT30;64480;52.040;113.502;2023-08-30T03:38:27;21.39;52.08
75838;SHT30;64480;52.040;113.502;2023-08-30T03:41:31;21.52;51.80
75838;SHT30;64480;52.040;113.502;2023-08-30T03:44:37;21.76;50.31
75838;SHT30;64480;52.040;113.502;2023-08-30T03:47:56;21.97;49.96
75838;SHT30;64480;52.040;113.502;2023-08-30T03:51:01;22.14;49.09
75838;SHT30;64480;52.040;113.502;2023-08-30T03:54:05;22.30;48.36
75838;SHT30;64480;52.040;113.502;2023-08-30T03:57:23;22.37;48.37
75838;SHT30;64480;52.040;113.502;2023-08-30T04:00:31;22.59;47.88
75838;SHT30;64480;52.040;113.502;2023-08-30T04:03:34;22.76;47.54
75838;SHT30;64480;52.040;113.502;2023-08-30T04:06:39;22.79;47.93
75838;SHT30;64480;52.040;113.502;2023-08-30T04:09:43;22.82;47.43
75838;SHT30;64480;52.040;113.502;2023-08-30T04:12:47;22.98;46.99
75838;SHT30;64480;52.040;113.502;2023-08-30T04:15:52;23.00;46.13
75838;SHT30;64480;52.040;113.502;2023-08-30T04:19:08;23.02;46.09
75838;SHT30;64480;52.040;113.502;2023-08-30T04:22:12;22.99;46.46
75838;SHT30;64480;52.040;113.502;2023-08-30T04:25:17;23.07;47.24
75838;SHT30;64480;52.040;113.502;2023-08-30T04:28:27;22.96;46.95
75838;SHT30;64480;52.040;113.502;2023-08-30T04:31:32;22.95;46.75
75838;SHT30;64480;52.040;113.502;2023-08-30T04:34:37;23.10;47.10
75838;SHT30;64480;52.040;113.502;2023-08-30T04:37:42;23.14;46.87
75838;SHT30;64480;52.040;113.502;2023-08-30T04:40:48;23.37;45.93
75838;SHT30;64480;52.040;113.502;2023-08-30T04:43:54;23.44;45.46
75838;SHT30;64480;52.040;113.502;2023-08-30T04:46:58;23.50;44.36
75838;SHT30;64480;52.040;113.502;2023-08-30T04:50:04;23.62;45.59
75838;SHT30;64480;52.040;113.502;2023-08-30T04:53:09;23.78;44.11
75838;SHT30;64480;52.040;113.502;2023-08-30T04:56:13;23.96;44.18
75838;SHT30;64480;52.040;113.502;2023-08-30T04:59:18;24.28;43.34
75838;SHT30;64480;52.040;113.502;2023-08-30T05:02:23;24.55;42.47
75838;SHT30;64480;52.040;113.502;2023-08-30T05:05:36;24.81;41.68
75838;SHT30;64480;52.040;113.502;2023-08-30T05:08:45;25.06;41.15
75838;SHT30;64480;52.040;113.502;2023-08-30T05:12:02;25.28;41.84
75838;SHT30;64480;52.040;113.502;2023-08-30T05:15:08;25.28;40.55
75838;SHT30;64480;52.040;113.502;2023-08-30T05:18:13;25.07;38.45
75838;SHT30;64480;52.040;113.502;2023-08-30T05:21:19;24.96;40.15
75838;SHT30;64480;52.040;113.502;2023-08-30T05:24:23;24.86;39.07
75838;SHT30;64480;52.040;113.502;2023-08-30T05:27:28;24.71;37.46
75838;SHT30;64480;52.040;113.502;2023-08-30T05:30:33;24.75;38.19
75838;SHT30;64480;52.040;113.502;2023-08-30T05:33:47;24.73;38.29
75838;SHT30;64480;52.040;113.502;2023-08-30T05:37:18;24.50;37.77
75838;SHT30;64480;52.040;113.502;2023-08-30T05:40:33;24.26;38.53
75838;SHT30;64480;52.040;113.502;2023-08-30T05:43:37;24.12;38.45
75838;SHT30;64480;52.040;113.502;2023-08-30T05:46:41;23.98;39.57
75838;SHT30;64480;52.040;113.502;2023-08-30T05:49:44;23.95;38.79
75838;SHT30;64480;52.040;113.502;2023-08-30T05:52:48;24.02;38.89
75838;SHT30;64480;52.040;113.502;2023-08-30T05:55:53;24.12;39.64
75838;SHT30;64480;52.040;113.502;2023-08-30T05:58:59;24.10;38.60
75838;SHT30;64480;52.040;113.502;2023-08-30T06:02:14;24.20;38.58
75838;SHT30;64480;52.040;113.502;2023-08-30T06:05:18;24.31;37.79
75838;SHT30;64480;52.040;113.502;2023-08-30T06:08:22;24.44;38.58
75838;SHT30;64480;52.040;113.502;2023-08-30T06:11:27;24.51;37.21
75838;SHT30;64480;52.040;113.502;2023-08-30T06:14:31;24.57;37.09
75838;SHT30;64480;52.040;113.502;2023-08-30T06:17:41;24.65;37.28
75838;SHT30;64480;52.040;113.502;2023-08-30T06:20:44;24.75;36.81
75838;SHT30;64480;52.040;113.502;2023-08-30T06:23:48;24.89;36.61
75838;SHT30;64480;52.040;113.502;2023-08-30T06:26:54;25.03;35.91
75838;SHT30;64480;52.040;113.502;2023-08-30T06:30:13;25.23;35.98
75838;SHT30;64480;52.040;113.502;2023-08-30T06:33:30;25.34;33.82
75838;SHT30;64480;52.040;113.502;2023-08-30T06:36:49;25.43;34.47
75838;SHT30;64480;52.040;113.502;2023-08-30T06:39:54;25.57;33.35
75838;SHT30;64480;52.040;113.502;2023-08-30T06:42:58;25.54;33.73
75838;SHT30;64480;52.040;113.502;2023-08-30T06:46:03;25.61;34.20
75838;SHT30;64480;52.040;113.502;2023-08-30T06:49:08;25.61;34.53
75838;SHT30;64480;52.040;113.502;2023-08-30T06:52:13;25.61;33.25
75838;SHT30;64480;52.040;113.502;2023-08-30T06:55:24;25.40;34.20
75838;SHT30;64480;52.040;113.502;2023-08-30T06:58:33;24.99;34.30
75838;SHT30;64480;52.040;113.502;2023-08-30T07:01:38;24.78;34.35
75838;SHT30;64480;52.040;113.502;2023-08-30T07:04:43;24.58;35.29
75838;SHT30;64480;52.040;113.502;2023-08-30T07:07:48;24.45;35.02
75838;SHT30;64480;52.040;113.502;2023-08-30T07:10:54;24.37;35.42
75838;SHT30;64480;52.040;113.502;2023-08-30T07:13:59;24.30;35.89
75838;SHT30;64480;52.040;113.502;2023-08-30T07:17:03;24.23;35.10
75838;SHT30;64480;52.040;113.502;2023-08-30T07:20:08;24.16;35.23
75838;SHT30;64480;52.040;113.502;2023-08-30T07:23:11;24.17;35.23
75838;SHT30;64480;52.040;113.502;2023-08-30T07:26:19;24.21;35.40
75838;SHT30;64480;52.040;113.502;2023-08-30T07:29:23;24.24;34.17
75838;SHT30;64480;52.040;113.502;2023-08-30T07:32:29;24.24;34.01
75838;SHT30;64480;52.040;113.502;2023-08-30T07:35:33;24.31;34.56
75838;SHT30;64480;52.040;113.502;2023-08-30T07:38:37;24.35;34.64
75838;SHT30;64480;52.040;113.502;2023-08-30T07:41:40;24.52;34.56
75838;SHT30;64480;52.040;113.502;2023-08-30T07:44:44;24.78;33.87
75838;SHT30;64480;52.040;113.502;2023-08-30T07:47:48;25.02;33.79
75838;SHT30;64480;52.040;113.502;2023-08-30T07:50:51;25.28;31.06
75838;SHT30;64480;52.040;113.502;2023-08-30T07:53:57;25.41;29.30
75838;SHT30;64480;52.040;113.502;2023-08-30T07:57:03;25.60;30.15
75838;SHT30;64480;52.040;113.502;2023-08-30T08:00:07;25.78;30.71
75838;SHT30;64480;52.040;113.502;2023-08-30T08:03:13;25.84;31.03
75838;SHT30;64480;52.040;113.502;2023-08-30T08:06:18;25.90;30.57
75838;SHT30;64480;52.040;113.502;2023-08-30T08:09:22;25.81;31.15
75838;SHT30;64480;52.040;113.502;2023-08-30T08:12:29;25.72;30.51
75838;SHT30;64480;52.040;113.502;2023-08-30T08:15:37;25.68;30.88
75838;SHT30;64480;52.040;113.502;2023-08-30T08:18:41;25.70;31.25
75838;SHT30;64480;52.040;113.502;2023-08-30T08:21:46;25.62;31.43
75838;SHT30;64480;52.040;113.502;2023-08-30T08:24:50;25.43;31.67
75838;SHT30;64480;52.040;113.502;2023-08-30T08:27:56;25.13;32.27
75838;SHT30;64480;52.040;113.502;2023-08-30T08:31:00;25.00;32.89
75838;SHT30;64480;52.040;113.502;2023-08-30T08:34:11;24.88;32.96
75838;SHT30;64480;52.040;113.502;2023-08-30T08:37:16;24.71;32.97
75838;SHT30;64480;52.040;113.502;2023-08-30T08:40:23;24.57;32.96
75838;SHT30;64480;52.040;113.502;2023-08-30T08:43:44;24.44;32.65
75838;SHT30;64480;52.040;113.502;2023-08-30T08:47:01;24.23;33.44
75838;SHT30;64480;52.040;113.502;2023-08-30T08:50:07;24.06;33.40
75838;SHT30;64480;52.040;113.502;2023-08-30T08:53:14;24.02;33.40
75838;SHT30;64480;52.040;113.502;2023-08-30T08:56:22;24.06;32.39
75838;SHT30;64480;52.040;113.502;2023-08-30T08:59:27;24.06;33.49
75838;SHT30;64480;52.040;113.502;2023-08-30T09:02:32;24.10;32.71
75838;SHT30;64480;52.040;113.502;2023-08-30T09:05:40;24.13;32.09
75838;SHT30;64480;52.040;113.502;2023-08-30T09:08:45;24.13;32.27
75838;SHT30;64480;52.040;113.502;2023-08-30T09:11:53;24.06;32.63
75838;SHT30;64480;52.040;113.502;2023-08-30T09:15:10;24.07;32.89
75838;SHT30;64480;52.040;113.502;2023-08-30T09:18:28;24.12;31.91
75838;SHT30;64480;52.040;113.502;2023-08-30T09:21:34;24.09;31.71
75838;SHT30;64480;52.040;113.502;2023-08-30T09:24:39;24.13;31.87
75838;SHT30;64480;52.040;113.502;2023-08-30T09:27:44;24.10;31.79
75838;SHT30;64480;52.040;113.502;2023-08-30T09:30:52;24.10;32.12
75838;SHT30;64480;52.040;113.502;2023-08-30T09:33:58;24.07;32.24
75838;SHT30;64480;52.040;113.502;2023-08-30T09:37:04;23.93;33.17
75838;SHT30;64480;52.040;113.502;2023-08-30T09:40:10;23.93;32.39
75838;SHT30;64480;52.040;113.502;2023-08-30T09:43:29;24.02;31.72
75838;SHT30;64480;52.040;113.502;2023-08-30T09:46:41;23.98;32.28
75838;SHT30;64480;52.040;113.502;2023-08-30T09:49:55;23.90;32.57
75838;SHT30;64480;52.040;113.502;2023-08-30T09:53:08;23.81;32.31
75838;SHT30;64480;52.040;113.502;2023-08-30T09:56:17;23.72;33.16
75838;SHT30;64480;52.040;113.502;2023-08-30T09:59:22;23.65;32.91
75838;SHT30;64480;52.040;113.502;2023-08-30T10:02:28;23.58;32.68
75838;SHT30;64480;52.040;113.502;2023-08-30T10:05:33;23.63;33.41
75838;SHT30;64480;52.040;113.502;2023-08-30T10:08:38;23.59;32.85
75838;SHT30;64480;52.040;113.502;2023-08-30T10:11:45;23.50;34.32
75838;SHT30;64480;52.040;113.502;2023-08-30T10:14:49;23.43;33.45
75838;SHT30;64480;52.040;113.502;2023-08-30T10:17:54;23.30;34.40
75838;SHT30;64480;52.040;113.502;2023-08-30T10:20:59;23.18;35.71
75838;SHT30;64480;52.040;113.502;2023-08-30T10:24:14;23.11;34.49
75838;SHT30;64480;52.040;113.502;2023-08-30T10:27:43;22.99;34.76
75838;SHT30;64480;52.040;113.502;2023-08-30T10:30:52;22.89;34.70
75838;SHT30;64480;52.040;113.502;2023-08-30T10:33:56;22.79;35.53
75838;SHT30;64480;52.040;113.502;2023-08-30T10:37:02;22.71;36.12
75838;SHT30;64480;52.040;113.502;2023-08-30T10:40:08;22.59;36.52
75838;SHT30;64480;52.040;113.502;2023-08-30T10:43:13;22.45;38.25
75838;SHT30;64480;52.040;113.502;2023-08-30T10:46:34;22.28;40.23
75838;SHT30;64480;52.040;113.502;2023-08-30T10:49:43;22.16;42.72
75838;SHT30;64480;52.040;113.502;2023-08-30T10:52:55;21.99;43.81
75838;SHT30;64480;52.040;113.502;2023-08-30T10:56:10;21.82;45.95
75838;SHT30;64480;52.040;113.502;2023-08-30T10:59:23;21.65;47.09
75838;SHT30;64480;52.040;113.502;2023-08-30T11:02:38;21.49;48.95
75838;SHT30;64480;52.040;113.502;2023-08-30T11:05:57;21.28;50.18
75838;SHT30;64480;52.040;113.502;2023-08-30T11:09:07;21.11;50.78
75838;SHT30;64480;52.040;113.502;2023-08-30T11:12:11;20.96;51.22
75838;SHT30;64480;52.040;113.502;2023-08-30T11:15:30;20.80;50.80
75838;SHT30;64480;52.040;113.502;2023-08-30T11:18:39;20.63;51.60
75838;SHT30;64480;52.040;113.502;2023-08-30T11:21:45;20.44;51.11
75838;SHT30;64480;52.040;113.502;2023-08-30T11:24:50;20.28;51.24
75838;SHT30;64480;52.040;113.502;2023-08-30T11:28:04;20.14;51.61
75838;SHT30;64480;52.040;113.502;2023-08-30T11:31:08;19.97;51.64
75838;SHT30;64480;52.040;113.502;2023-08-30T11:34:12;19.83;51.69
75838;SHT30;64480;52.040;113.502;2023-08-30T11:37:16;19.70;51.79
75838;SHT30;64480;52.040;113.502;2023-08-30T11:40:24;19.59;51.40
75838;SHT30;64480;52.040;113.502;2023-08-30T11:43:31;19.48;51.47
75838;SHT30;64480;52.040;113.502;2023-08-30T11:46:37;19.36;51.44
75838;SHT30;64480;52.040;113.502;2023-08-30T11:49:48;19.25;51.76
75838;SHT30;64480;52.040;113.502;2023-08-30T11:52:54;19.14;52.20
75838;SHT30;64480;52.040;113.502;2023-08-30T11:55:59;19.07;52.64
75838;SHT30;64480;52.040;113.502;2023-08-30T11:59:03;19.00;53.39
75838;SHT30;64480;52.040;113.502;2023-08-30T12:02:09;18.94;53.68
75838;SHT30;64480;52.040;113.502;2023-08-30T12:05:16;18.89;54.08
75838;SHT30;64480;52.040;113.502;2023-08-30T12:08:33;18.86;53.95
75838;SHT30;64480;52.040;113.502;2023-08-30T12:11:38;18.87;53.83
75838;SHT30;64480;52.040;113.502;2023-08-30T12:14:55;18.84;53.02
75838;SHT30;64480;52.040;113.502;2023-08-30T12:18:15;18.86;53.15
75838;SHT30;64480;52.040;113.502;2023-08-30T12:21:20;18.82;52.36
75838;SHT30;64480;52.040;113.502;2023-08-30T12:24:25;18.76;51.16
75838;SHT30;64480;52.040;113.502;2023-08-30T12:27:29;18.69;50.96
75838;SHT30;64480;52.040;113.502;2023-08-30T12:30:47;18.59;51.15
75838;SHT30;64480;52.040;113.502;2023-08-30T12:33:51;18.41;50.37
75838;SHT30;64480;52.040;113.502;2023-08-30T12:37:00;18.22;50.66
75838;SHT30;64480;52.040;113.502;2023-08-30T12:40:07;18.11;51.42
75838;SHT30;64480;52.040;113.502;2023-08-30T12:43:14;18.07;51.77
75838;SHT30;64480;52.040;113.502;2023-08-30T12:46:19;17.93;51.59
75838;SHT30;64480;52.040;113.502;2023-08-30T12:49:24;17.83;51.84
75838;SHT30;64480;52.040;113.502;2023-08-30T12:52:28;17.72;52.49
75838;SHT30;64480;52.040;113.502;2023-08-30T12:55:36;17.62;57.22
75838;SHT30;64480;52.040;113.502;2023-08-30T12:58:44;17.49;59.86
75838;SHT30;64480;52.040;113.502;2023-08-30T13:01:51;17.36;60.47
75838;SHT30;64480;52.040;113.502;2023-08-30T13:04:55;17.28;61.01
75838;SHT30;64480;52.040;113.502;2023-08-30T13:08:00;17.19;61.34
75838;SHT30;64480;52.040;113.502;2023-08-30T13:11:05;17.14;60.72
75838;SHT30;64480;52.040;113.502;2023-08-30T13:14:10;17.03;61.41
75838;SHT30;64480;52.040;113.502;2023-08-30T13:17:14;16.97;61.41
75838;SHT30;64480;52.040;113.502;2023-08-30T13:20:21;16.84;61.64
75838;SHT30;64480;52.040;113.502;2023-08-30T13:23:25;16.76;61.42
75838;SHT30;64480;52.040;113.502;2023-08-30T13:26:30;16.69;61.39
75838;SHT30;64480;52.040;113.502;2023-08-30T13:29:34;16.56;61.92
75838;SHT30;64480;52.040;113.502;2023-08-30T13:32:37;16.53;62.19
75838;SHT30;64480;52.040;113.502;2023-08-30T13:35:42;16.41;62.39
75838;SHT30;64480;52.040;113.502;2023-08-30T13:38:46;16.35;62.30
75838;SHT30;64480;52.040;113.502;2023-08-30T13:41:50;16.25;62.10
75838;SHT30;64480;52.040;113.502;2023-08-30T13:44:54;16.19;62.11
75838;SHT30;64480;52.040;113.502;2023-08-30T13:47:58;16.08;62.24
75838;SHT30;64480;52.040;113.502;2023-08-30T13:51:02;15.96;62.45
75838;SHT30;64480;52.040;113.502;2023-08-30T13:54:05;15.80;62.96
75838;SHT30;64480;52.040;113.502;2023-08-30T13:57:10;15.69;63.49
75838;SHT30;64480;52.040;113.502;2023-08-30T14:00:16;15.65;63.76
75838;SHT30;64480;52.040;113.502;2023-08-30T14:03:21;15.55;63.85
75838;SHT30;64480;52.040;113.502;2023-08-30T14:06:24;15.53;63.97
75838;SHT30;64480;52.040;113.502;2023-08-30T14:09:29;15.45;64.31
75838;SHT30;64480;52.040;113.502;2023-08-30T14:12:33;15.43;64.32
75838;SHT30;64480;52.040;113.502;2023-08-30T14:15:37;15.31;64.90
75838;SHT30;64480;52.040;113.502;2023-08-30T14:18:43;15.31;64.85
75838;SHT30;64480;52.040;113.502;2023-08-30T14:21:47;15.24;65.45
75838;SHT30;64480;52.040;113.502;2023-08-30T14:24:55;15.15;65.66
75838;SHT30;64480;52.040;113.502;2023-08-30T14:28:13;15.12;65.78
75838;SHT30;64480;52.040;113.502;2023-08-30T14:31:18;15.07;65.55
75838;SHT30;64480;52.040;113.502;2023-08-30T14:34:27;15.04;65.91
75838;SHT30;64480;52.040;113.502;2023-08-30T14:37:30;15.00;66.23
75838;SHT30;64480;52.040;113.502;2023-08-30T14:40:37;14.84;66.33
75838;SHT30;64480;52.040;113.502;2023-08-30T14:43:40;14.73;66.99
75838;SHT30;64480;52.040;113.502;2023-08-30T14:46:44;14.69;67.01
75838;SHT30;64480;52.040;113.502;2023-08-30T14:49:48;14.67;66.77
75838;SHT30;64480;52.040;113.502;2023-08-30T14:52:51;14.60;66.84
75838;SHT30;64480;52.040;113.502;2023-08-30T14:55:58;14.53;66.90
75838;SHT30;64480;52.040;113.502;2023-08-30T14:59:02;14.40;67.38
75838;SHT30;64480;52.040;113.502;2023-08-30T15:02:07;14.35;67.62
75838;SHT30;64480;52.040;113.502;2023-08-30T15:05:12;14.25;67.98
75838;SHT30;64480;52.040;113.502;2023-08-30T15:08:17;14.26;67.84
75838;SHT30;64480;52.040;113.502;2023-08-30T15:11:21;14.28;68.04
75838;SHT30;64480;52.040;113.502;2023-08-30T15:14:25;14.25;68.16
75838;SHT30;64480;52.040;113.502;2023-08-30T15:17:31;14.25;68.21
75838;SHT30;64480;52.040;113.502;2023-08-30T15:20:36;14.21;68.46
75838;SHT30;64480;52.040;113.502;2023-08-30T15:23:41;14.18;68.66
75838;SHT30;64480;52.040;113.502;2023-08-30T15:26:45;14.10;68.90
75838;SHT30;64480;52.040;113.502;2023-08-30T15:29:49;14.01;69.08
75838;SHT30;64480;52.040;113.502;2023-08-30T15:32:56;13.95;69.11
75838;SHT30;64480;52.040;113.502;2023-08-30T15:36:00;13.94;69.15
75838;SHT30;64480;52.040;113.502;2023-08-30T15:39:05;13.90;68.94
75838;SHT30;64480;52.040;113.502;2023-08-30T15:42:19;13.76;69.34
75838;SHT30;64480;52.040;113.502;2023-08-30T15:45:23;13.69;69.40
75838;SHT30;64480;52.040;113.502;2023-08-30T15:48:26;13.60;69.50
75838;SHT30;64480;52.040;113.502;2023-08-30T15:51:31;13.59;69.41
75838;SHT30;64480;52.040;113.502;2023-08-30T15:54:34;13.59;69.07
75838;SHT30;64480;52.040;113.502;2023-08-30T15:57:39;13.46;69.15
75838;SHT30;64480;52.040;113.502;2023-08-30T16:00:43;13.42;69.16
75838;SHT30;64480;52.040;113.502;2023-08-30T16:03:46;13.39;69.34
75838;SHT30;64480;52.040;113.502;2023-08-30T16:06:50;13.39;69.56
75838;SHT30;64480;52.040;113.502;2023-08-30T16:09:54;13.40;69.67
75838;SHT30;64480;52.040;113.502;2023-08-30T16:13:01;13.38;69.79
75838;SHT30;64480;52.040;113.502;2023-08-30T16:16:05;13.34;70.14
75838;SHT30;64480;52.040;113.502;2023-08-30T16:19:08;13.36;70.07
75838;SHT30;64480;52.040;113.502;2023-08-30T16:22:14;13.45;69.80
75838;SHT30;64480;52.040;113.502;2023-08-30T16:25:20;13.42;69.85
75838;SHT30;64480;52.040;113.502;2023-08-30T16:28:24;13.39;69.93
75838;SHT30;64480;52.040;113.502;2023-08-30T16:31:29;13.29;70.13
75838;SHT30;64480;52.040;113.502;2023-08-30T16:34:35;13.23;70.42
75838;SHT30;64480;52.040;113.502;2023-08-30T16:37:39;13.22;70.35
75838;SHT30;64480;52.040;113.502;2023-08-30T16:40:43;13.14;70.40
75838;SHT30;64480;52.040;113.502;2023-08-30T16:43:47;13.05;70.56
75838;SHT30;64480;52.040;113.502;2023-08-30T16:46:52;12.97;70.70
75838;SHT30;64480;52.040;113.502;2023-08-30T16:49:56;12.94;70.72
75838;SHT30;64480;52.040;113.502;2023-08-30T16:53:01;12.97;70.58
75838;SHT30;64480;52.040;113.502;2023-08-30T16:56:05;12.93;70.93
75838;SHT30;64480;52.040;113.502;2023-08-30T16:59:10;12.81;71.26
75838;SHT30;64480;52.040;113.502;2023-08-30T17:02:14;12.73;71.55
75838;SHT30;64480;52.040;113.502;2023-08-30T17:05:18;12.68;71.78
75838;SHT30;64480;52.040;113.502;2023-08-30T17:08:22;12.57;72.04
75838;SHT30;64480;52.040;113.502;2023-08-30T17:11:26;12.50;72.32
75838;SHT30;64480;52.040;113.502;2023-08-30T17:14:32;12.52;72.28
75838;SHT30;64480;52.040;113.502;2023-08-30T17:17:35;12.59;72.10
75838;SHT30;64480;52.040;113.502;2023-08-30T17:20:40;12.55;72.26
75838;SHT30;64480;52.040;113.502;2023-08-30T17:23:44;12.43;72.72
75838;SHT30;64480;52.040;113.502;2023-08-30T17:26:48;12.38;72.77
75838;SHT30;64480;52.040;113.502;2023-08-30T17:29:53;12.33;72.91
75838;SHT30;64480;52.040;113.502;2023-08-30T17:33:06;12.32;72.98
75838;SHT30;64480;52.040;113.502;2023-08-30T17:36:11;12.26;72.97
75838;SHT30;64480;52.040;113.502;2023-08-30T17:39:16;12.28;73.07
75838;SHT30;64480;52.040;113.502;2023-08-30T17:42:21;12.25;73.19
75838;SHT30;64480;52.040;113.502;2023-08-30T17:45:29;12.24;73.01
75838;SHT30;64480;52.040;113.502;2023-08-30T17:48:33;12.21;72.97
75838;SHT30;64480;52.040;113.502;2023-08-30T17:51:37;12.17;72.93
75838;SHT30;64480;52.040;113.502;2023-08-30T17:54:40;12.14;73.02
75838;SHT30;64480;52.040;113.502;2023-08-30T17:57:45;12.14;73.00
75838;SHT30;64480;52.040;113.502;2023-08-30T18:00:50;12.10;72.99
75838;SHT30;64480;52.040;113.502;2023-08-30T18:03:58;12.01;73.36
75838;SHT30;64480;52.040;113.502;2023-08-30T18:07:02;12.02;73.48
75838;SHT30;64480;52.040;113.502;2023-08-30T18:10:06;12.02;73.51
75838;SHT30;64480;52.040;113.502;2023-08-30T18:13:10;11.93;73.64
75838;SHT30;64480;52.040;113.502;2023-08-30T18:16:18;11.85;73.76
75838;SHT30;64480;52.040;113.502;2023-08-30T18:19:26;11.80;73.88
75838;SHT30;64480;52.040;113.502;2023-08-30T18:22:30;11.73;74.05
75838;SHT30;64480;52.040;113.502;2023-08-30T18:25:33;11.71;74.20
75838;SHT30;64480;52.040;113.502;2023-08-30T18:28:37;11.71;74.11
75838;SHT30;64480;52.040;113.502;2023-08-30T18:31:42;11.67;74.12
75838;SHT30;64480;52.040;113.502;2023-08-30T18:34:46;11.63;74.10
75838;SHT30;64480;52.040;113.502;2023-08-30T18:37:50;11.63;74.06
75838;SHT30;64480;52.040;113.502;2023-08-30T18:40:55;11.59;74.21
75838;SHT30;64480;52.040;113.502;2023-08-30T18:44:18;11.52;74.35
75838;SHT30;64480;52.040;113.502;2023-08-30T18:47:21;11.49;74.57
75838;SHT30;64480;52.040;113.502;2023-08-30T18:50:25;11.46;74.55
75838;SHT30;64480;52.040;113.502;2023-08-30T18:53:29;11.53;74.50
75838;SHT30;64480;52.040;113.502;2023-08-30T18:56:33;11.55;74.36
75838;SHT30;64480;52.040;113.502;2023-08-30T18:59:38;11.64;74.11
75838;SHT30;64480;52.040;113.502;2023-08-30T19:02:43;11.77;73.86
75838;SHT30;64480;52.040;113.502;2023-08-30T19:05:48;11.83;73.79